createdAt,value
2022-09-20T00:02:00.358Z,63.08
2022-09-20T00:04:28.070Z,63.21
2022-09-20T00:06:55.667Z,63.28
2022-09-20T00:09:24.728Z,63.42
2022-09-20T00:11:52.512Z,63.65
2022-09-20T00:14:20.198Z,63.42
2022-09-20T00:16:47.860Z,63.37
2022-09-20T00:19:19.891Z,63.64
2022-09-20T00:21:47.664Z,63.04
2022-09-20T00:24:15.335Z,63.18
2022-09-20T00:26:44.416Z,63.36
2022-09-20T00:29:12.721Z,63.32
2022-09-20T00:31:42.805Z,63.61
2022-09-20T00:34:25.472Z,63.81
2022-09-20T00:36:53.109Z,63.69
2022-09-20T00:39:20.784Z,64.34
2022-09-20T00:41:49.823Z,64.35
2022-09-20T00:44:54.926Z,64.23
2022-09-20T00:47:27.788Z,64.27
2022-09-20T00:49:59.047Z,63.73
2022-09-20T00:52:27.850Z,63.89
2022-09-20T00:54:56.211Z,64.03
2022-09-20T00:57:25.628Z,64.21
2022-09-20T00:59:53.831Z,64.09
2022-09-20T01:02:25.251Z,63.70
2022-09-20T01:04:53.063Z,64.15
2022-09-20T01:07:23.303Z,63.83
2022-09-20T01:09:51.205Z,63.99
2022-09-20T01:12:21.002Z,63.70
2022-09-20T01:14:51.871Z,63.96
2022-09-20T01:17:20.670Z,63.98
2022-09-20T01:19:52.658Z,64.44
2022-09-20T01:22:23.989Z,64.09
2022-09-20T01:24:59.188Z,64.29
2022-09-20T01:27:40.880Z,64.57
2022-09-20T01:30:10.355Z,64.60
2022-09-20T01:32:46.842Z,64.89
2022-09-20T01:35:16.027Z,64.77
2022-09-20T01:37:55.595Z,64.82
2022-09-20T01:40:28.033Z,64.92
2022-09-20T01:43:06.607Z,65.13
2022-09-20T01:45:34.487Z,65.00
2022-09-20T01:48:10.451Z,65.33
2022-09-20T01:50:48.158Z,65.47
2022-09-20T01:53:38.770Z,65.15
2022-09-20T01:56:17.270Z,65.58
2022-09-20T01:59:29.588Z,65.28
2022-09-20T02:02:10.654Z,65.53
2022-09-20T02:05:10.754Z,65.38
2022-09-20T02:07:57.841Z,65.69
2022-09-20T02:10:36.498Z,65.66
2022-09-20T02:13:05.473Z,65.62
2022-09-20T02:15:42.719Z,65.70
2022-09-20T02:18:22.320Z,65.92
2022-09-20T02:20:54.219Z,66.16
2022-09-20T02:23:29.309Z,66.08
2022-09-20T02:26:04.481Z,66.04
2022-09-20T02:28:41.881Z,66.24
2022-09-20T02:31:17.027Z,66.59
2022-09-20T02:34:03.521Z,66.55
2022-09-20T02:36:39.241Z,66.48
2022-09-20T02:39:12.386Z,66.14
2022-09-20T02:41:56.986Z,66.69
2022-09-20T02:44:39.747Z,66.63
2022-09-20T02:47:13.521Z,66.72
2022-09-20T02:49:53.972Z,66.63
2022-09-20T02:52:29.141Z,67.00
2022-09-20T02:55:04.646Z,66.86
2022-09-20T02:57:40.642Z,66.94
2022-09-20T03:00:12.114Z,67.16
2022-09-20T03:02:51.534Z,66.90
2022-09-20T03:05:25.460Z,67.34
2022-09-20T03:08:04.111Z,67.06
2022-09-20T03:10:37.049Z,67.49
2022-09-20T03:13:16.349Z,67.72
2022-09-20T03:15:53.906Z,67.88
2022-09-20T03:18:35.429Z,67.72
2022-09-20T03:21:12.688Z,68.16
2022-09-20T03:23:51.287Z,68.02
2022-09-20T03:26:31.649Z,68.12
2022-09-20T03:29:04.021Z,68.00
2022-09-20T03:31:44.082Z,68.26
2022-09-20T03:34:19.789Z,68.20
2022-09-20T03:37:00.278Z,68.49
2022-09-20T03:39:42.956Z,68.36
2022-09-20T03:42:17.073Z,68.29
2022-09-20T03:45:07.058Z,68.38
2022-09-20T03:47:55.581Z,68.04
2022-09-20T03:50:43.071Z,68.05
2022-09-20T03:53:50.587Z,68.19
2022-09-20T03:56:30.219Z,68.06
2022-09-20T03:59:10.927Z,68.20
2022-09-20T04:01:57.507Z,68.23
2022-09-20T04:04:29.375Z,68.17
2022-09-20T04:07:07.090Z,68.50
2022-09-20T04:09:57.194Z,68.33
2022-09-20T04:12:30.774Z,68.19
2022-09-20T04:15:06.987Z,68.26
2022-09-20T04:17:40.547Z,68.45
2022-09-20T04:20:16.568Z,68.40
2022-09-20T04:22:44.651Z,68.42
2022-09-20T04:25:17.865Z,68.62
2022-09-20T04:27:49.070Z,68.52
2022-09-20T04:30:20.046Z,68.56
2022-09-20T04:32:52.232Z,68.75
2022-09-20T04:35:48.541Z,68.75
2022-09-20T04:38:19.926Z,68.56
2022-09-20T04:41:07.126Z,68.90
2022-09-20T04:44:12.003Z,68.87
2022-09-20T04:47:16.444Z,69.04
2022-09-20T04:50:17.457Z,69.00
2022-09-20T04:53:19.791Z,68.89
2022-09-20T04:55:51.711Z,69.11
2022-09-20T04:58:47.999Z,68.92
2022-09-20T05:02:03.391Z,69.22
2022-09-20T05:05:09.510Z,69.36
2022-09-20T05:08:19.296Z,69.29
2022-09-20T05:11:09.679Z,69.65
2022-09-20T05:13:49.895Z,69.36
2022-09-20T05:16:23.183Z,69.45
2022-09-20T05:19:12.250Z,69.31
2022-09-20T05:21:51.256Z,69.44
2022-09-20T05:24:28.127Z,69.78
2022-09-20T05:27:06.207Z,69.60
2022-09-20T05:29:42.333Z,69.87
2022-09-20T05:32:18.347Z,70.16
2022-09-20T05:34:51.223Z,70.65
2022-09-20T05:37:29.854Z,70.56
2022-09-20T05:40:02.872Z,70.90
2022-09-20T05:42:38.002Z,70.51
2022-09-20T05:45:19.181Z,71.18
2022-09-20T05:47:53.713Z,71.48
2022-09-20T05:50:44.962Z,71.78
2022-09-20T05:53:35.067Z,71.49
2022-09-20T05:56:07.756Z,71.92
2022-09-20T05:58:51.186Z,71.70
2022-09-20T06:01:25.962Z,71.84
2022-09-20T06:03:56.600Z,72.05
2022-09-20T06:06:32.599Z,72.50
2022-09-20T06:09:12.886Z,72.28
2022-09-20T06:11:56.192Z,72.68
2022-09-20T06:14:36.269Z,72.77
2022-09-20T06:17:12.843Z,72.83
2022-09-20T06:19:45.491Z,72.78
2022-09-20T06:22:17.303Z,73.17
2022-09-20T06:24:48.700Z,73.09
2022-09-20T06:27:20.058Z,73.38
2022-09-20T06:29:53.354Z,73.42
2022-09-20T06:32:22.382Z,73.61
2022-09-20T06:34:50.045Z,74.21
2022-09-20T06:37:49.867Z,74.20
2022-09-20T06:40:50.026Z,74.48
2022-09-20T06:43:19.309Z,74.01
2022-09-20T06:45:48.357Z,74.21
2022-09-20T06:48:19.221Z,74.40
2022-09-20T06:50:46.937Z,74.62
2022-09-20T06:53:17.667Z,74.92
2022-09-20T06:55:45.610Z,74.83
2022-09-20T06:58:13.379Z,74.65
2022-09-20T07:00:41.028Z,74.72
2022-09-20T07:03:08.891Z,75.00
2022-09-20T07:05:38.847Z,74.73
2022-09-20T07:08:06.613Z,74.64
2022-09-20T07:10:35.138Z,75.14
2022-09-20T07:13:03.962Z,74.98
2022-09-20T07:15:32.989Z,74.84
2022-09-20T07:18:00.820Z,74.86
2022-09-20T07:20:28.807Z,74.49
2022-09-20T07:22:57.808Z,74.42
2022-09-20T07:25:25.448Z,74.19
2022-09-20T07:27:53.098Z,74.05
2022-09-20T07:30:21.445Z,74.35
2022-09-20T07:32:49.100Z,74.49
2022-09-20T07:35:17.026Z,74.22
2022-09-20T07:37:44.687Z,74.45
2022-09-20T07:40:14.660Z,74.75
2022-09-20T07:42:42.365Z,74.56
2022-09-20T07:45:12.818Z,74.05
2022-09-20T07:47:42.060Z,73.88
2022-09-20T07:50:11.666Z,74.19
2022-09-20T07:52:39.366Z,74.36
2022-09-20T07:55:07.661Z,74.06
2022-09-20T07:57:38.390Z,74.38
2022-09-20T08:00:08.239Z,74.00
2022-09-20T08:02:35.942Z,73.65
2022-09-20T08:05:04.798Z,73.71
2022-09-20T08:07:32.399Z,72.94
2022-09-20T08:10:00.179Z,73.04
2022-09-20T08:15:17.936Z,72.53
2022-09-20T08:17:48.675Z,71.61
2022-09-20T08:20:16.790Z,71.70
2022-09-20T08:22:49.826Z,71.93
2022-09-20T08:25:24.901Z,71.46
2022-09-20T08:27:54.164Z,71.97
2022-09-20T08:30:27.457Z,72.54
2022-09-20T08:32:55.781Z,71.41
2022-09-20T08:35:25.387Z,70.68
2022-09-20T08:37:55.944Z,70.35
2022-09-20T08:40:25.222Z,70.42
2022-09-20T08:42:53.459Z,70.20
2022-09-20T08:45:40.376Z,70.14
2022-09-20T08:48:14.431Z,69.62
2022-09-20T08:50:42.270Z,69.07
2022-09-20T08:53:13.630Z,69.08
2022-09-20T08:55:43.392Z,68.77
2022-09-20T08:58:12.316Z,68.76
2022-09-20T09:00:42.097Z,68.33
2022-09-20T09:03:13.767Z,68.23
2022-09-20T09:05:44.650Z,68.48
2022-09-20T09:08:16.563Z,68.39
2022-09-20T09:10:46.643Z,67.84
2022-09-20T09:13:23.556Z,68.03
2022-09-20T09:15:57.225Z,68.53
2022-09-20T09:18:33.429Z,68.10
2022-09-20T09:21:04.366Z,67.31
2022-09-20T09:23:41.035Z,67.23
2022-09-20T09:26:16.943Z,66.96
2022-09-20T09:28:44.615Z,67.39
2022-09-20T09:31:26.794Z,66.63
2022-09-20T09:33:56.010Z,66.30
2022-09-20T09:36:25.919Z,67.22
2022-09-20T09:39:16.146Z,66.99
2022-09-20T09:41:44.424Z,66.75
2022-09-20T09:44:21.089Z,64.80
2022-09-20T09:46:51.330Z,64.99
2022-09-20T09:49:21.500Z,64.80
2022-09-20T09:52:03.231Z,63.46
2022-09-20T09:54:36.539Z,63.65
2022-09-20T09:57:16.017Z,63.07
2022-09-20T10:00:03.929Z,62.92
2022-09-20T10:02:50.045Z,61.98
2022-09-20T10:05:21.956Z,61.38
2022-09-20T10:07:55.057Z,61.34
2022-09-20T10:10:29.099Z,61.87
2022-09-20T10:13:06.082Z,61.16
2022-09-20T10:15:39.011Z,61.49
2022-09-20T10:18:20.806Z,60.72
2022-09-20T10:20:59.831Z,59.91
2022-09-20T10:26:55.075Z,58.29
2022-09-20T10:29:32.069Z,59.43
2022-09-20T10:32:06.954Z,58.25
2022-09-20T10:34:57.577Z,58.37
2022-09-20T10:37:31.027Z,58.45
2022-09-20T10:40:06.906Z,57.73
2022-09-20T10:42:57.302Z,57.51
2022-09-20T10:46:03.414Z,57.96
2022-09-20T10:48:24.281Z,57.93
2022-09-20T10:50:58.086Z,59.42
2022-09-20T10:53:30.575Z,60.91
2022-09-20T10:56:08.166Z,61.85
2022-09-20T10:58:46.635Z,63.10
2022-09-20T11:01:20.139Z,63.20
2022-09-20T11:04:14.177Z,64.91
2022-09-20T11:07:32.747Z,66.00
2022-09-20T11:10:06.444Z,67.25
2022-09-20T11:12:39.579Z,67.45
2022-09-20T11:15:16.777Z,67.75
2022-09-20T11:17:49.318Z,67.79
2022-09-20T11:20:21.927Z,67.84
2022-09-20T11:22:53.741Z,67.88
2022-09-20T11:25:29.718Z,66.44
2022-09-20T11:28:00.111Z,67.23
2022-09-20T11:30:29.522Z,66.44
2022-09-20T11:33:03.230Z,66.48
2022-09-20T11:35:33.595Z,66.47
2022-09-20T11:38:11.144Z,66.96
2022-09-20T11:40:43.531Z,66.23
2022-09-20T11:43:12.116Z,65.40
2022-09-20T11:45:41.943Z,65.93
2022-09-20T11:48:13.996Z,65.62
2022-09-20T11:51:18.534Z,64.71
2022-09-20T11:53:56.503Z,63.23
2022-09-20T11:56:26.487Z,63.81
2022-09-20T11:58:56.391Z,63.21
2022-09-20T12:01:28.741Z,63.24
2022-09-20T12:04:14.533Z,62.24
2022-09-20T12:06:45.958Z,62.31
2022-09-20T12:09:25.253Z,62.71
2022-09-20T12:11:54.386Z,61.04
2022-09-20T12:14:25.759Z,61.38
2022-09-20T12:16:53.582Z,59.58
2022-09-20T12:19:38.900Z,58.92
2022-09-20T12:22:29.410Z,61.00
2022-09-20T12:25:37.190Z,61.07
2022-09-20T12:28:15.349Z,59.63
2022-09-20T12:30:43.029Z,59.68
2022-09-20T12:33:20.381Z,59.28
2022-09-20T12:36:21.086Z,60.07
2022-09-20T12:38:52.633Z,60.32
2022-09-20T12:41:28.368Z,61.35
2022-09-20T12:44:04.513Z,64.81
2022-09-20T12:46:35.994Z,66.07
2022-09-20T12:49:48.961Z,66.99
2022-09-20T12:52:52.475Z,68.34
2022-09-20T12:55:43.628Z,69.15
2022-09-20T12:58:26.867Z,68.64
2022-09-20T13:01:27.290Z,70.15
2022-09-20T13:04:34.831Z,71.06
2022-09-20T13:07:27.537Z,70.68
2022-09-20T13:09:55.518Z,71.22
2022-09-20T13:12:23.320Z,71.97
2022-09-20T13:14:52.400Z,73.28
2022-09-20T13:17:27.230Z,73.90
2022-09-20T13:19:57.097Z,73.46
2022-09-20T13:22:27.051Z,73.80
2022-09-20T13:24:58.820Z,73.90
2022-09-20T13:27:28.738Z,73.51
2022-09-20T13:29:56.495Z,73.28
2022-09-20T13:32:25.757Z,72.03
2022-09-20T13:35:08.038Z,70.83
2022-09-20T13:37:36.218Z,69.95
2022-09-20T13:40:05.104Z,72.37
2022-09-20T13:42:35.692Z,72.25
2022-09-20T13:45:04.277Z,68.85
2022-09-20T13:47:33.820Z,68.23
2022-09-20T13:50:02.563Z,69.90
2022-09-20T13:52:32.972Z,69.74
2022-09-20T13:55:01.089Z,67.94
2022-09-20T13:57:30.048Z,66.99
2022-09-20T13:59:58.269Z,68.16
2022-09-20T14:02:28.950Z,68.25
2022-09-20T14:04:57.818Z,68.37
2022-09-20T14:07:28.046Z,68.72
2022-09-20T14:09:58.305Z,68.79
2022-09-20T14:12:26.771Z,68.79
2022-09-20T14:14:54.501Z,67.74
2022-09-20T14:17:24.591Z,67.19
2022-09-20T14:19:54.467Z,67.57
2022-09-20T14:22:24.561Z,67.47
2022-09-20T14:25:02.592Z,68.83
2022-09-20T14:27:31.406Z,68.59
2022-09-20T14:29:59.547Z,69.41
2022-09-20T14:32:38.612Z,68.21
2022-09-20T14:35:09.260Z,68.16
2022-09-20T14:37:43.843Z,67.84
2022-09-20T14:40:22.751Z,67.52
2022-09-20T14:42:53.489Z,68.48
2022-09-20T14:45:24.380Z,68.84
2022-09-20T14:47:58.899Z,69.35
2022-09-20T14:50:28.943Z,69.87
2022-09-20T14:53:21.502Z,70.53
2022-09-20T14:56:10.465Z,70.15
2022-09-20T14:59:07.140Z,69.90
2022-09-20T15:01:35.791Z,69.61
2022-09-20T15:04:09.087Z,68.54
2022-09-20T15:06:38.957Z,69.24
2022-09-20T15:09:06.669Z,68.95
2022-09-20T15:11:35.746Z,67.98
2022-09-20T15:14:03.317Z,69.01
2022-09-20T15:16:31.457Z,69.32
2022-09-20T15:18:59.146Z,68.95
2022-09-20T15:21:26.959Z,68.96
2022-09-20T15:23:54.638Z,67.91
2022-09-20T15:26:22.349Z,67.82
2022-09-20T15:28:51.646Z,67.41
2022-09-20T15:31:20.003Z,67.61
2022-09-20T15:33:47.950Z,67.00
2022-09-20T15:36:15.524Z,67.61
2022-09-20T15:38:43.378Z,67.53
2022-09-20T15:41:11.078Z,67.24
2022-09-20T15:43:39.685Z,67.13
2022-09-20T15:46:19.052Z,67.84
2022-09-20T15:48:46.957Z,66.68
2022-09-20T15:51:15.229Z,66.52
2022-09-20T15:53:45.240Z,66.85
2022-09-20T15:56:17.335Z,66.77
2022-09-20T15:58:47.293Z,67.70
2022-09-20T16:01:17.570Z,66.58
2022-09-20T16:03:46.510Z,67.34
2022-09-20T16:06:15.190Z,67.15
2022-09-20T16:08:43.999Z,67.05
2022-09-20T16:11:14.200Z,67.34
2022-09-20T16:13:41.976Z,67.32
2022-09-20T16:16:13.000Z,68.01
2022-09-20T16:18:59.705Z,67.66
2022-09-20T16:21:27.394Z,66.69
2022-09-20T16:23:56.559Z,66.62
2022-09-20T16:26:25.446Z,67.53
2022-09-20T16:28:54.344Z,67.44
2022-09-20T16:31:34.394Z,67.60
2022-09-20T16:34:05.238Z,68.05
2022-09-20T16:36:33.245Z,68.15
2022-09-20T16:39:01.441Z,69.74
2022-09-20T16:41:55.676Z,70.47
2022-09-20T16:44:23.338Z,68.88
2022-09-20T16:46:51.348Z,67.85
2022-09-20T16:49:19.079Z,66.85
2022-09-20T16:51:47.352Z,66.72
2022-09-20T16:54:16.500Z,67.58
2022-09-20T16:56:45.346Z,67.41
2022-09-20T16:59:15.716Z,67.80
2022-09-20T17:01:43.898Z,68.16
2022-09-20T17:04:14.034Z,68.47
2022-09-20T17:06:43.262Z,68.28
2022-09-20T17:09:11.445Z,67.46
2022-09-20T17:11:41.146Z,67.73
2022-09-20T17:14:10.021Z,69.41
2022-09-20T17:17:51.126Z,70.19
2022-09-20T17:20:18.770Z,69.45
2022-09-20T17:22:46.395Z,69.91
2022-09-20T17:25:14.188Z,70.75
2022-09-20T17:27:41.899Z,71.06
2022-09-20T17:30:10.956Z,71.58
2022-09-20T17:32:38.598Z,71.97
2022-09-20T17:35:08.532Z,72.09
2022-09-20T17:37:36.392Z,71.97
2022-09-20T17:40:04.375Z,71.46
2022-09-20T17:42:33.761Z,71.83
2022-09-20T17:45:01.905Z,72.28
2022-09-20T17:47:29.537Z,72.70
2022-09-20T17:49:57.182Z,72.74
2022-09-20T17:52:26.222Z,72.79
2022-09-20T17:54:53.809Z,73.12
2022-09-20T17:57:21.445Z,72.30
2022-09-20T17:59:49.133Z,70.35
2022-09-20T18:02:16.877Z,69.50
2022-09-20T18:04:44.570Z,68.91
2022-09-20T18:07:12.202Z,69.22
2022-09-20T18:09:41.241Z,68.60
2022-09-20T18:12:10.345Z,68.15
2022-09-20T18:14:39.622Z,68.72
2022-09-20T18:17:07.225Z,69.12
2022-09-20T18:19:35.681Z,67.66
2022-09-20T18:22:04.065Z,68.39
2022-09-20T18:24:32.313Z,69.78
2022-09-20T18:27:01.616Z,69.95
2022-09-20T18:29:29.363Z,70.41
2022-09-20T18:31:57.953Z,70.67
2022-09-20T18:34:31.245Z,70.60
2022-09-20T18:37:01.134Z,70.15
2022-09-20T18:39:30.998Z,70.57
2022-09-20T18:41:59.929Z,70.24
2022-09-20T18:44:33.466Z,70.28
2022-09-20T18:47:02.811Z,70.61
2022-09-20T18:49:30.616Z,69.62
2022-09-20T18:51:58.320Z,70.15
2022-09-20T18:54:27.185Z,69.67
2022-09-20T18:56:55.306Z,70.08
2022-09-20T18:59:25.055Z,69.61
2022-09-20T19:02:14.595Z,69.64
2022-09-20T19:05:05.666Z,69.55
2022-09-20T19:07:42.064Z,68.93
2022-09-20T19:10:15.559Z,68.82
2022-09-20T19:12:48.295Z,68.53
2022-09-20T19:15:41.091Z,69.14
2022-09-20T19:18:27.838Z,69.31
2022-09-20T19:20:59.491Z,69.55
2022-09-20T19:23:42.878Z,69.50
2022-09-20T19:26:21.578Z,69.59
2022-09-20T19:28:50.103Z,69.79
2022-09-20T19:31:23.113Z,69.67
2022-09-20T19:33:54.864Z,69.56
2022-09-20T19:36:23.244Z,69.11
2022-09-20T19:38:59.213Z,69.49
2022-09-20T19:41:34.622Z,69.51
2022-09-20T19:44:14.903Z,69.48
2022-09-20T19:46:50.855Z,69.25
2022-09-20T19:49:24.679Z,69.43
2022-09-20T19:51:53.078Z,69.39
2022-09-20T19:54:21.189Z,69.77
2022-09-20T19:56:54.495Z,69.37
2022-09-20T19:59:23.748Z,69.58
2022-09-20T20:01:52.498Z,69.33
2022-09-20T20:04:22.374Z,69.37
2022-09-20T20:06:58.713Z,69.64
2022-09-20T20:09:33.832Z,69.51
2022-09-20T20:12:05.668Z,69.84
2022-09-20T20:14:40.498Z,69.98
2022-09-20T20:17:18.042Z,69.95
2022-09-20T20:19:57.010Z,69.94
2022-09-20T20:22:45.794Z,69.76
2022-09-20T20:25:20.633Z,69.51
2022-09-20T20:27:48.590Z,69.49
2022-09-20T20:30:16.332Z,69.42
2022-09-20T20:32:43.942Z,69.77
2022-09-20T20:35:13.921Z,69.58
2022-09-20T20:37:41.630Z,69.61
2022-09-20T20:40:12.125Z,69.73
2022-09-20T20:42:40.410Z,69.53
2022-09-20T20:45:08.744Z,69.77
2022-09-20T20:47:36.749Z,69.51
2022-09-20T20:50:04.552Z,69.57
2022-09-20T20:52:33.580Z,69.24
2022-09-20T20:55:01.379Z,69.38
2022-09-20T20:57:29.736Z,69.01
2022-09-20T20:59:57.446Z,68.77
2022-09-20T21:02:25.277Z,69.11
2022-09-20T21:04:52.894Z,69.13
2022-09-20T21:07:20.627Z,68.90
2022-09-20T21:09:49.660Z,69.29
2022-09-20T21:12:18.453Z,69.34
2022-09-20T21:14:46.036Z,69.61
2022-09-20T21:17:13.742Z,69.33
2022-09-20T21:19:41.363Z,69.19
2022-09-20T21:22:08.983Z,69.31
2022-09-20T21:24:36.626Z,68.95
2022-09-20T21:27:05.897Z,68.98
2022-09-20T21:29:33.521Z,69.29
2022-09-20T21:32:01.165Z,69.26
2022-09-20T21:34:28.919Z,69.22
2022-09-20T21:36:57.130Z,69.42
2022-09-20T21:39:24.919Z,69.10
2022-09-20T21:41:52.492Z,69.38
2022-09-20T21:44:21.482Z,69.46
2022-09-20T21:46:49.993Z,69.28
2022-09-20T21:49:17.793Z,68.99
2022-09-20T21:51:45.404Z,68.69
2022-09-20T21:54:13.112Z,68.74
2022-09-20T21:56:41.345Z,68.91
2022-09-20T21:59:09.438Z,68.68
2022-09-20T22:01:41.456Z,68.40
2022-09-20T22:04:10.408Z,68.69
2022-09-20T22:06:39.211Z,68.50
2022-09-20T22:09:08.637Z,68.48
2022-09-20T22:11:39.102Z,68.26
2022-09-20T22:14:07.414Z,68.01
2022-09-20T22:16:36.800Z,68.29
2022-09-20T22:19:07.738Z,68.61
2022-09-20T22:21:36.785Z,68.63
2022-09-20T22:24:06.223Z,68.58
2022-09-20T22:26:35.486Z,68.52
2022-09-20T22:29:03.688Z,68.19
2022-09-20T22:31:32.919Z,68.24
2022-09-20T22:34:02.052Z,67.94
2022-09-20T22:36:34.123Z,68.24
2022-09-20T22:39:02.164Z,68.25
2022-09-20T22:41:30.070Z,68.11
2022-09-20T22:43:57.983Z,68.09
2022-09-20T22:46:27.400Z,67.92
2022-09-20T22:48:55.513Z,68.04
2022-09-20T22:51:25.022Z,67.93
2022-09-20T22:53:54.643Z,68.35
2022-09-20T22:56:24.684Z,68.10
2022-09-20T22:58:54.135Z,68.15
2022-09-20T23:01:22.965Z,68.29
2022-09-20T23:03:56.066Z,67.82
2022-09-20T23:06:25.894Z,67.89
2022-09-20T23:08:56.745Z,67.87
2022-09-20T23:11:25.232Z,67.84
2022-09-20T23:13:55.793Z,67.98
2022-09-20T23:16:25.720Z,68.12
2022-09-20T23:18:55.758Z,68.15
2022-09-20T23:21:24.347Z,67.85
2022-09-20T23:23:55.944Z,67.52
2022-09-20T23:26:25.372Z,67.41
2022-09-20T23:28:55.801Z,67.77
2022-09-20T23:31:24.332Z,68.22
2022-09-20T23:33:53.914Z,67.72
2022-09-20T23:36:22.453Z,67.67
2022-09-20T23:38:50.790Z,67.69
2022-09-20T23:41:22.457Z,68.01
2022-09-20T23:43:50.325Z,67.82
2022-09-20T23:46:19.820Z,67.93
2022-09-20T23:48:47.844Z,67.75
2022-09-20T23:51:17.257Z,68.19
2022-09-20T23:53:45.451Z,68.40
2022-09-20T23:56:13.932Z,68.33
2022-09-20T23:58:45.107Z,68.28
